Time;durP1;ratioP1;P1;durP2;ratioP2;P2;SDS_P1;SDS_P2;PMS_P1;PMS_P2;Temp;Humidity;BMP_temperature;BMP_pressure;BME280_temperature;BME280_humidity;BME280_pressure;Samples;Min_cycle;Max_cycle;Signal;HPM_P1;HPM_P2
2022/05/15 00:02:37;;;;;;;5.83;2.87;;;;;;;9.86;75.09;97638.91;4988716;28;20050;-63
2022/05/15 00:05:04;;;;;;;4.95;3.00;;;;;;;9.79;74.97;97629.28;5001236;28;20046;-63
2022/05/15 00:07:31;;;;;;;6.18;3.00;;;;;;;9.75;75.31;97627.09;5004490;28;20053;-64
2022/05/15 00:09:57;;;;;;;5.38;3.20;;;;;;;9.76;75.57;97626.00;4993399;28;20034;-64
2022/05/15 00:12:24;;;;;;;7.25;3.17;;;;;;;9.80;75.09;97625.53;4988114;28;20049;-63
2022/05/15 00:14:50;;;;;;;8.80;3.60;;;;;;;9.92;74.83;97631.72;5002071;28;20042;-63
2022/05/15 00:17:17;;;;;;;5.63;3.33;;;;;;;9.84;75.48;97626.69;5003828;28;20049;-64
2022/05/15 00:19:44;;;;;;;4.63;3.17;;;;;;;9.77;75.56;97624.13;5004122;28;20046;-63
2022/05/15 00:22:11;;;;;;;6.80;3.58;;;;;;;9.79;75.35;97621.16;5007106;28;20168;-64
2022/05/15 00:24:37;;;;;;;6.63;2.97;;;;;;;9.86;74.78;97619.16;5005893;28;20649;-64
2022/05/15 00:27:04;;;;;;;8.15;3.03;;;;;;;9.87;74.46;97627.03;4994161;28;20041;-63
2022/05/15 00:29:33;;;;;;;5.53;2.72;;;;;;;9.74;75.26;97622.72;5004514;28;20046;-63
2022/05/15 00:32:00;;;;;;;6.70;2.88;;;;;;;9.67;75.71;97624.75;5018811;28;20061;-63
2022/05/15 00:34:27;;;;;;;5.55;2.70;;;;;;;9.70;75.63;97618.84;5005373;28;20144;-64
2022/05/15 00:36:53;;;;;;;5.85;2.78;;;;;;;9.65;75.96;97620.66;4985279;28;20046;-61
2022/05/15 00:39:20;;;;;;;5.65;2.80;;;;;;;9.63;76.04;97615.47;5003294;28;20034;-61
2022/05/15 00:41:46;;;;;;;5.40;2.75;;;;;;;9.60;76.38;97607.84;5004446;28;20052;-61
2022/05/15 00:44:13;;;;;;;5.45;3.17;;;;;;;9.45;76.88;97617.28;4985564;28;20050;-62
2022/05/15 00:46:41;;;;;;;5.38;2.83;;;;;;;9.46;76.60;97616.22;4999681;28;20050;-61
2022/05/15 00:49:12;;;;;;;5.55;2.90;;;;;;;9.49;76.76;97614.91;5006644;28;20046;-62
2022/05/15 00:51:48;;;;;;;7.05;3.13;;;;;;;9.45;76.64;97608.34;5003703;28;20042;-61
2022/05/15 00:54:28;;;;;;;5.88;2.67;;;;;;;9.54;76.40;97604.22;4988064;28;20054;-61
2022/05/15 00:57:23;;;;;;;6.25;3.15;;;;;;;9.37;77.23;97606.84;5005889;28;20050;-61
2022/05/15 00:59:57;;;;;;;5.82;2.78;;;;;;;9.39;76.88;97598.50;5005447;28;20048;-62
2022/05/15 01:02:27;;;;;;;9.60;2.85;;;;;;;9.37;76.95;97612.25;5019234;28;20044;-62
2022/05/15 01:04:54;;;;;;;7.32;3.13;;;;;;;9.31;77.06;97592.41;5006752;28;20436;-62
2022/05/15 01:07:21;;;;;;;8.02;3.40;;;;;;;9.26;77.14;97605.81;5007326;28;20061;-62
2022/05/15 01:09:50;;;;;;;4.85;3.00;;;;;;;9.24;77.23;97600.63;4994433;28;20042;-62
2022/05/15 01:12:17;;;;;;;9.52;2.83;;;;;;;9.26;77.26;97602.28;5005077;28;20069;-62
2022/05/15 01:14:46;;;;;;;7.13;2.95;;;;;;;9.36;76.52;97594.38;5005017;28;20052;-61
2022/05/15 01:17:13;;;;;;;7.93;3.00;;;;;;;9.37;76.73;97596.03;5006587;28;20052;-62
2022/05/15 01:19:42;;;;;;;7.30;4.00;;;;;;;9.32;76.90;97598.63;5008221;28;20042;-62
2022/05/15 01:22:15;;;;;;;7.45;3.03;;;;;;;9.30;77.09;97595.34;4989642;28;20057;-63
2022/05/15 01:24:42;;;;;;;4.90;2.70;;;;;;;9.14;77.77;97591.50;5023709;28;20088;-63
2022/05/15 01:27:12;;;;;;;5.22;2.97;;;;;;;9.08;78.16;97590.56;5001705;28;20050;-63
2022/05/15 01:29:47;;;;;;;6.10;2.80;;;;;;;9.15;77.95;97593.13;5007394;28;20061;-63
2022/05/15 01:32:16;;;;;;;6.25;2.92;;;;;;;9.06;78.20;97590.78;5002403;28;20141;-62
2022/05/15 01:34:43;;;;;;;4.80;2.60;;;;;;;8.98;78.27;97588.44;4987352;28;20540;-63
2022/05/15 01:37:10;;;;;;;5.28;2.70;;;;;;;8.94;78.60;97604.31;5003975;28;20046;-63
2022/05/15 01:39:37;;;;;;;5.85;2.65;;;;;;;8.92;78.51;97592.91;5006832;28;20038;-63
2022/05/15 01:42:04;;;;;;;5.43;2.45;;;;;;;8.84;78.56;97591.41;4989703;28;20136;-63
2022/05/15 01:44:31;;;;;;;6.75;2.60;;;;;;;8.91;78.58;97593.16;4987096;28;20050;-63
2022/05/15 01:46:58;;;;;;;4.72;2.70;;;;;;;8.98;78.16;97604.66;4986851;28;20042;-63
2022/05/15 01:49:26;;;;;;;4.40;2.63;;;;;;;9.03;78.06;97602.06;4999647;28;20598;-63
2022/05/15 01:51:53;;;;;;;6.63;2.50;;;;;;;9.01;78.02;97597.97;5003465;28;20046;-63
2022/05/15 01:54:21;;;;;;;8.55;3.67;;;;;;;9.10;77.57;97597.38;5006284;28;20057;-63
2022/05/15 01:56:48;;;;;;;4.95;2.67;;;;;;;9.09;77.37;97598.44;4989212;28;20061;-63
2022/05/15 01:59:17;;;;;;;5.25;2.75;;;;;;;9.10;77.33;97600.06;4991104;28;20053;-63
2022/05/15 02:01:44;;;;;;;5.10;3.10;;;;;;;9.08;77.39;97594.09;4988590;28;20133;-63
2022/05/15 02:04:10;;;;;;;5.03;2.45;;;;;;;9.17;77.21;97601.81;5007457;28;20037;-63
2022/05/15 02:06:38;;;;;;;5.68;3.17;;;;;;;9.08;77.81;97599.50;4989480;28;20604;-64
2022/05/15 02:09:06;;;;;;;4.80;2.80;;;;;;;9.03;78.16;97593.97;4993555;28;20060;-63
2022/05/15 02:11:34;;;;;;;6.30;2.90;;;;;;;9.07;77.76;97597.84;5001540;28;20046;-63
2022/05/15 02:14:01;;;;;;;6.10;3.30;;;;;;;9.14;77.25;97599.59;5002007;28;20245;-63
2022/05/15 02:16:28;;;;;;;5.78;3.15;;;;;;;9.18;77.27;97606.19;5003939;28;20168;-63
2022/05/15 02:18:55;;;;;;;5.70;2.80;;;;;;;9.13;77.39;97603.38;5004302;28;20073;-63
2022/05/15 02:21:22;;;;;;;4.72;2.53;;;;;;;9.19;77.25;97602.41;4987339;28;20037;-63
2022/05/15 02:23:48;;;;;;;4.20;2.55;;;;;;;9.21;76.91;97601.09;5004718;28;20100;-63
2022/05/15 02:26:16;;;;;;;5.20;3.30;;;;;;;9.20;77.13;97590.53;5004205;28;20045;-63
2022/05/15 02:28:42;;;;;;;7.05;3.08;;;;;;;9.00;77.48;97594.44;4997614;28;20038;-63
2022/05/15 02:31:09;;;;;;;7.20;3.10;;;;;;;8.98;77.46;97599.25;4988840;28;20046;-63
2022/05/15 02:33:36;;;;;;;4.45;2.72;;;;;;;8.96;77.78;97602.19;5005560;28;20049;-63
2022/05/15 02:36:03;;;;;;;4.30;2.92;;;;;;;8.98;77.88;97591.16;5009581;28;20420;-63
2022/05/15 02:38:31;;;;;;;6.10;2.92;;;;;;;8.85;78.44;97597.63;5000076;28;20045;-63
2022/05/15 02:40:58;;;;;;;5.07;2.50;;;;;;;8.75;78.97;97591.97;4993459;28;20038;-64
2022/05/15 02:43:24;;;;;;;5.13;2.92;;;;;;;8.64;79.75;97588.22;4994624;28;20572;-63
2022/05/15 02:45:51;;;;;;;5.47;3.30;;;;;;;8.56;80.16;97590.19;4984011;28;20043;-64
2022/05/15 02:51:03;;;;;;;5.78;3.40;;;;;;;8.42;80.97;97588.75;4999727;28;20042;-63
2022/05/15 02:53:35;;;;;;;5.28;2.83;;;;;;;8.48;80.79;97578.91;4999445;28;20057;-62
2022/05/15 02:56:06;;;;;;;6.53;3.10;;;;;;;8.49;80.64;97583.25;5001847;28;20052;-63
2022/05/15 02:58:33;;;;;;;5.45;2.67;;;;;;;8.37;81.10;97583.25;5000050;28;20532;-63
2022/05/15 03:01:00;;;;;;;5.45;3.00;;;;;;;8.28;81.81;97580.88;5020479;28;20037;-63
2022/05/15 03:03:27;;;;;;;6.88;3.00;;;;;;;8.27;81.74;97586.50;5021731;28;20064;-63
2022/05/15 03:05:54;;;;;;;5.32;3.15;;;;;;;8.17;82.53;97582.50;5001258;28;20738;-63
2022/05/15 03:08:21;;;;;;;7.78;3.67;;;;;;;8.18;82.11;97586.84;5005901;28;20091;-63
2022/05/15 03:10:47;;;;;;;7.45;3.20;;;;;;;8.26;82.09;97592.97;4996040;28;20041;-63
2022/05/15 03:13:14;;;;;;;5.10;3.00;;;;;;;8.19;81.73;97595.75;4992366;28;20517;-63
2022/05/15 03:15:41;;;;;;;5.43;2.85;;;;;;;8.08;82.36;97591.97;4986942;28;20844;-64
2022/05/15 03:18:08;;;;;;;6.88;3.42;;;;;;;8.09;82.55;97590.91;4996819;28;20097;-63
2022/05/15 03:20:35;;;;;;;6.50;3.25;;;;;;;8.10;82.55;97589.88;5005207;28;20046;-63
2022/05/15 03:23:02;;;;;;;6.80;3.03;;;;;;;8.09;82.91;97595.47;5013501;28;20042;-63
2022/05/15 03:25:30;;;;;;;10.45;3.25;;;;;;;8.07;82.39;97587.63;4983929;28;20057;-63
2022/05/15 03:27:56;;;;;;;4.60;2.63;;;;;;;8.07;82.60;97587.63;4996255;28;20070;-63
2022/05/15 03:30:23;;;;;;;5.50;3.28;;;;;;;7.99;82.88;97583.38;4991667;28;20042;-62
2022/05/15 03:32:50;;;;;;;5.13;2.95;;;;;;;8.07;82.78;97588.44;4994384;28;20049;-63
2022/05/15 03:35:16;;;;;;;5.35;2.70;;;;;;;8.11;82.69;97590.69;5006943;28;20061;-63
2022/05/15 03:37:43;;;;;;;7.20;2.67;;;;;;;8.22;81.66;97591.78;5000894;28;20133;-63
2022/05/15 03:40:11;;;;;;;5.55;2.40;;;;;;;8.22;81.70;97594.47;5005935;28;20049;-63
2022/05/15 03:42:38;;;;;;;4.15;2.60;;;;;;;8.18;81.85;97599.50;5009985;28;20120;-63
2022/05/15 03:45:05;;;;;;;10.50;3.15;;;;;;;8.23;82.21;97593.41;5013604;28;20054;-64
2022/05/15 03:47:34;;;;;;;5.90;3.10;;;;;;;8.21;81.67;97596.34;5010485;28;20173;-63
2022/05/15 03:50:07;;;;;;;4.28;2.88;;;;;;;8.16;81.82;97605.13;5007077;28;20092;-63
2022/05/15 03:52:34;;;;;;;6.50;3.10;;;;;;;8.14;81.90;97599.13;5008000;28;20401;-63
2022/05/15 03:55:02;;;;;;;5.28;2.97;;;;;;;8.01;82.33;97602.03;5019192;28;20140;-63
2022/05/15 03:57:29;;;;;;;6.57;3.20;;;;;;;8.00;82.29;97600.41;5014250;28;20141;-63
2022/05/15 03:59:56;;;;;;;4.13;2.53;;;;;;;8.00;82.20;97598.50;5005299;28;20046;-63
2022/05/15 04:02:23;;;;;;;3.80;2.28;;;;;;;7.93;82.59;97604.00;4992015;28;20038;-63
2022/05/15 04:04:49;;;;;;;5.35;2.90;;;;;;;8.02;82.59;97614.47;5004283;28;20049;-63
2022/05/15 04:07:16;;;;;;;6.32;2.80;;;;;;;8.07;82.29;97601.09;5002330;28;20042;-63
2022/05/15 04:09:42;;;;;;;6.03;2.95;;;;;;;8.12;82.15;97609.34;4998577;28;20052;-63
2022/05/15 04:12:11;;;;;;;5.95;2.97;;;;;;;8.13;82.14;97604.75;4995257;28;20040;-63
2022/05/15 04:14:38;;;;;;;5.22;2.80;;;;;;;8.21;81.77;97607.13;4990763;28;20033;-63
2022/05/15 04:17:05;;;;;;;5.80;3.30;;;;;;;8.23;81.48;97598.81;5005949;28;20045;-63
2022/05/15 04:19:37;;;;;;;4.78;2.88;;;;;;;8.26;81.50;97598.34;5014209;28;20532;-63
2022/05/15 04:22:09;;;;;;;5.13;2.50;;;;;;;8.24;81.56;97600.44;5012471;28;20044;-63
2022/05/15 04:24:36;;;;;;;8.05;3.10;;;;;;;8.27;81.43;97600.81;5012049;28;20136;-63
2022/05/15 04:27:03;;;;;;;4.40;3.25;;;;;;;8.24;81.79;97605.84;5007038;28;20508;-63
2022/05/15 04:29:30;;;;;;;5.35;2.80;;;;;;;8.34;81.27;97606.13;5000487;28;20038;-63
2022/05/15 04:31:56;;;;;;;5.18;2.53;;;;;;;8.40;81.09;97601.69;4999109;28;20041;-63
2022/05/15 04:34:25;;;;;;;6.10;3.10;;;;;;;8.53;80.86;97598.78;5010950;28;20136;-63
2022/05/15 04:36:52;;;;;;;5.38;3.30;;;;;;;8.63;80.22;97603.63;5017298;28;20119;-63
2022/05/15 04:39:20;;;;;;;7.80;3.72;;;;;;;8.73;80.22;97605.72;5017345;28;20076;-63
2022/05/15 04:41:46;;;;;;;4.57;3.03;;;;;;;8.87;80.16;97600.91;5013426;28;20042;-63
2022/05/15 04:44:13;;;;;;;7.13;3.50;;;;;;;8.98;79.38;97601.94;5006911;28;20046;-63
2022/05/15 04:46:40;;;;;;;5.65;2.92;;;;;;;9.10;78.98;97599.22;5000231;28;20100;-64
2022/05/15 04:49:07;;;;;;;5.32;3.00;;;;;;;9.08;79.48;97599.50;5006316;28;20043;-63
2022/05/15 04:51:34;;;;;;;9.57;3.20;;;;;;;9.13;79.46;97600.66;5002590;28;20107;-63
2022/05/15 04:54:00;;;;;;;7.20;3.33;;;;;;;9.24;78.77;97606.03;4994997;28;20428;-63
2022/05/15 04:56:27;;;;;;;5.07;2.72;;;;;;;9.31;78.54;97602.38;4997743;28;20057;-63
2022/05/15 04:58:54;;;;;;;6.32;3.13;;;;;;;9.33;78.63;97609.19;5007811;28;20038;-64
2022/05/15 05:01:24;;;;;;;5.75;2.97;;;;;;;9.44;78.61;97606.72;4998957;28;20053;-64
2022/05/15 05:03:55;;;;;;;5.32;3.40;;;;;;;9.45;79.18;97602.94;5009527;28;20069;-64
2022/05/15 05:06:23;;;;;;;4.95;3.00;;;;;;;9.61;77.67;97613.00;5007866;28;20168;-64
2022/05/15 05:08:50;;;;;;;4.55;2.65;;;;;;;9.66;77.86;97608.75;5005478;28;20057;-64
2022/05/15 05:11:17;;;;;;;6.93;2.90;;;;;;;9.73;78.08;97614.88;4997828;28;20041;-64
2022/05/15 05:13:44;;;;;;;5.10;2.83;;;;;;;9.86;77.65;97611.03;5007613;28;20054;-63
2022/05/15 05:16:11;;;;;;;4.70;3.05;;;;;;;9.97;77.25;97617.47;4989355;28;20058;-63
2022/05/15 05:18:38;;;;;;;6.25;2.95;;;;;;;10.05;77.29;97619.78;5001249;28;20095;-63
2022/05/15 05:21:05;;;;;;;5.20;3.08;;;;;;;10.22;76.56;97621.69;5005598;28;20046;-63
2022/05/15 05:23:32;;;;;;;5.15;3.08;;;;;;;10.32;76.19;97616.44;5018121;28;20045;-63
2022/05/15 05:25:59;;;;;;;6.07;2.80;;;;;;;10.48;76.34;97624.88;5007758;28;20500;-63
2022/05/15 05:28:26;;;;;;;7.30;3.10;;;;;;;10.58;76.29;97625.03;5005841;28;20045;-64
2022/05/15 05:30:53;;;;;;;5.55;3.05;;;;;;;10.71;76.10;97628.50;5006599;28;20603;-63
2022/05/15 05:33:22;;;;;;;4.85;2.42;;;;;;;10.85;75.58;97624.41;5006966;28;20121;-63
2022/05/15 05:35:50;;;;;;;8.60;3.17;;;;;;;11.04;75.46;97624.94;5004363;28;20045;-63
2022/05/15 05:38:17;;;;;;;8.77;2.97;;;;;;;11.25;74.63;97627.94;5008418;28;20045;-63
2022/05/15 05:40:44;;;;;;;4.82;2.60;;;;;;;11.44;74.06;97617.63;5004858;28;20464;-63
2022/05/15 05:43:11;;;;;;;7.38;2.35;;;;;;;11.65;73.30;97620.56;5007776;28;20410;-64
2022/05/15 05:45:37;;;;;;;5.10;2.63;;;;;;;11.87;72.82;97619.72;5013910;28;20049;-63
2022/05/15 05:48:04;;;;;;;6.03;2.60;;;;;;;12.02;71.88;97618.28;5018534;28;20046;-63
2022/05/15 05:50:32;;;;;;;4.65;2.40;;;;;;;12.20;71.38;97609.00;5008470;28;20920;-62
2022/05/15 05:52:58;;;;;;;6.03;2.20;;;;;;;12.34;70.36;97604.78;5012194;28;20073;-63
2022/05/15 05:55:26;;;;;;;6.38;2.13;;;;;;;12.50;69.06;97613.06;5008676;28;20084;-63
2022/05/15 05:57:53;;;;;;;5.80;2.53;;;;;;;12.67;68.25;97617.53;5003360;28;20042;-62
2022/05/15 06:00:31;;;;;;;7.38;2.35;;;;;;;12.82;68.17;97616.81;5003251;28;20050;-62
2022/05/15 06:05:46;;;;;;;4.57;2.17;;;;;;;13.10;67.22;97610.25;5006953;28;20049;-63
2022/05/15 06:08:13;;;;;;;4.85;1.98;;;;;;;13.25;66.62;97616.84;5014526;28;20046;-63
2022/05/15 06:10:40;;;;;;;6.50;1.90;;;;;;;13.29;66.83;97617.13;5009374;28;20814;-63
2022/05/15 06:13:08;;;;;;;5.10;1.98;;;;;;;13.36;67.06;97615.81;5002600;28;20046;-62
2022/05/15 06:15:35;;;;;;;5.95;1.80;;;;;;;13.72;61.46;97611.63;5007293;28;20045;-62
2022/05/15 06:18:04;;;;;;;5.45;1.80;;;;;;;13.99;59.79;97621.50;5001917;28;20073;-62
2022/05/15 06:20:31;;;;;;;3.35;1.65;;;;;;;14.22;58.66;97620.22;4990659;28;20069;-62
2022/05/15 06:22:58;;;;;;;4.25;1.80;;;;;;;14.56;58.41;97625.16;4999971;28;20076;-62
2022/05/15 06:25:25;;;;;;;6.07;2.00;;;;;;;14.88;57.70;97623.28;4992131;28;20062;-62
2022/05/15 06:27:51;;;;;;;5.20;1.83;;;;;;;15.01;57.97;97618.34;4987269;28;20577;-62
2022/05/15 06:30:19;;;;;;;4.57;1.90;;;;;;;15.07;58.12;97615.34;5003550;28;20053;-63
2022/05/15 06:32:45;;;;;;;3.58;1.52;;;;;;;15.19;58.45;97620.47;4997012;28;20039;-63
2022/05/15 06:35:14;;;;;;;3.65;1.73;;;;;;;15.23;58.93;97617.22;5005722;28;20042;-63
2022/05/15 06:37:40;;;;;;;4.70;1.63;;;;;;;15.40;58.40;97616.91;5002342;28;20104;-63
2022/05/15 06:40:09;;;;;;;5.70;1.90;;;;;;;15.58;58.16;97619.03;4993713;28;20049;-62
2022/05/15 06:42:36;;;;;;;5.10;2.08;;;;;;;15.73;57.41;97618.13;4993795;28;20492;-62
2022/05/15 06:45:05;;;;;;;3.33;1.95;;;;;;;15.82;57.21;97623.03;5007254;28;20042;-62
2022/05/15 06:47:35;;;;;;;5.75;1.85;;;;;;;15.87;57.65;97617.53;4990458;28;20516;-63
2022/05/15 06:50:03;;;;;;;5.82;2.10;;;;;;;16.04;58.25;97610.91;5000139;28;20050;-62
2022/05/15 06:52:30;;;;;;;3.35;1.77;;;;;;;16.14;57.74;97613.56;5000546;28;20034;-62
2022/05/15 06:54:56;;;;;;;7.57;2.00;;;;;;;16.22;58.35;97614.91;4999280;28;20046;-62
2022/05/15 06:57:29;;;;;;;4.80;2.90;;;;;;;16.34;57.40;97607.19;5001659;28;20823;-63
2022/05/15 07:00:03;;;;;;;5.30;2.08;;;;;;;16.54;57.39;97613.59;5000702;28;20534;-62
2022/05/15 07:02:30;;;;;;;5.13;1.95;;;;;;;16.60;55.74;97615.19;5009551;28;20041;-63
2022/05/15 07:04:57;;;;;;;3.88;1.90;;;;;;;16.70;55.46;97613.47;5005660;28;20509;-64
2022/05/15 07:07:24;;;;;;;3.95;2.10;;;;;;;16.85;55.31;97620.72;5002610;28;20540;-63
2022/05/15 07:09:50;;;;;;;4.68;1.75;;;;;;;16.87;54.60;97616.59;5007339;28;20054;-64
2022/05/15 07:12:17;;;;;;;4.70;2.13;;;;;;;16.98;53.97;97625.53;5008439;28;20500;-64
2022/05/15 07:14:44;;;;;;;6.30;1.80;;;;;;;17.06;54.71;97618.63;5002160;28;20090;-64
2022/05/15 07:17:10;;;;;;;5.50;1.77;;;;;;;17.09;53.83;97619.97;4996098;28;20413;-64
2022/05/15 07:19:40;;;;;;;5.85;1.83;;;;;;;17.18;54.15;97617.44;5001581;28;20048;-64
2022/05/15 07:22:08;;;;;;;4.10;1.73;;;;;;;17.31;53.60;97618.69;5011727;28;20543;-64
2022/05/15 07:24:38;;;;;;;4.55;1.80;;;;;;;17.32;52.74;97618.38;5006680;28;20050;-64
2022/05/15 07:27:09;;;;;;;4.40;1.90;;;;;;;17.41;52.53;97627.59;4999047;28;20053;-64
2022/05/15 07:29:36;;;;;;;4.40;1.83;;;;;;;17.45;52.57;97619.59;5003817;28;20042;-64
2022/05/15 07:32:08;;;;;;;6.70;2.20;;;;;;;17.46;52.30;97617.69;5012215;28;20041;-64
2022/05/15 07:34:37;;;;;;;3.33;1.80;;;;;;;17.51;52.52;97620.38;5002011;28;20412;-64
2022/05/15 07:37:05;;;;;;;5.25;1.83;;;;;;;17.45;52.39;97627.81;5000707;28;20045;-64
2022/05/15 07:39:31;;;;;;;4.53;2.13;;;;;;;17.49;52.10;97615.19;4999534;28;20517;-64
2022/05/15 07:41:58;;;;;;;5.03;2.10;;;;;;;17.62;52.39;97626.53;4992816;28;20676;-64
2022/05/15 07:44:24;;;;;;;3.83;1.85;;;;;;;17.66;51.76;97620.16;5012747;28;20563;-64
2022/05/15 07:46:51;;;;;;;4.35;1.90;;;;;;;17.78;52.30;97627.16;5007634;28;20045;-64
2022/05/15 07:49:18;;;;;;;5.20;1.77;;;;;;;17.91;51.83;97618.22;5015700;28;20111;-64
2022/05/15 07:51:47;;;;;;;5.47;2.10;;;;;;;18.01;51.12;97625.50;5010746;28;20065;-64
2022/05/15 07:54:16;;;;;;;8.50;1.92;;;;;;;18.22;50.82;97610.72;4988547;28;20046;-64
2022/05/15 07:56:44;;;;;;;4.40;2.05;;;;;;;18.22;51.00;97619.75;4988941;28;20563;-64
2022/05/15 07:59:12;;;;;;;3.95;1.60;;;;;;;18.19;49.19;97609.38;4993019;28;20560;-64
2022/05/15 08:01:40;;;;;;;3.28;1.50;;;;;;;18.21;48.79;97612.66;4991004;28;20109;-64
2022/05/15 08:04:06;;;;;;;4.97;1.98;;;;;;;18.35;49.21;97609.16;5015931;28;20660;-64
2022/05/15 08:09:18;;;;;;;3.33;1.50;;;;;;;18.49;47.55;97612.78;5005320;28;20076;-64
2022/05/15 08:11:45;;;;;;;10.70;1.80;;;;;;;18.57;49.29;97614.84;5003976;28;20050;-64
2022/05/15 08:14:12;;;;;;;5.45;1.63;;;;;;;18.66;48.27;97611.41;5006104;28;20435;-64
2022/05/15 08:16:39;;;;;;;4.30;2.15;;;;;;;18.66;49.33;97608.69;4997297;28;20042;-64
2022/05/15 08:24:38;;;;;;;4.28;1.60;;;;;;;19.07;48.30;97609.94;5020109;28;20042;-64
2022/05/15 08:27:05;;;;;;;4.90;1.70;;;;;;;19.05;47.23;97606.66;5000461;28;20042;-64
2022/05/15 08:29:33;;;;;;;3.80;1.80;;;;;;;19.09;47.55;97605.75;5004121;28;20440;-64
2022/05/15 08:32:00;;;;;;;4.38;1.67;;;;;;;19.13;47.57;97614.22;4997720;28;20583;-64
2022/05/15 08:34:27;;;;;;;5.65;2.40;;;;;;;19.16;47.78;97610.84;4998487;28;20038;-64
2022/05/15 08:36:55;;;;;;;4.43;2.15;;;;;;;19.21;46.77;97607.22;5004023;28;20050;-64
2022/05/15 08:39:21;;;;;;;2.97;1.45;;;;;;;19.34;46.73;97608.31;5006571;28;20046;-64
2022/05/15 08:41:54;;;;;;;5.25;1.60;;;;;;;19.42;45.72;97602.13;4994768;28;20046;-64
2022/05/15 08:44:29;;;;;;;7.13;1.83;;;;;;;19.48;45.68;97611.91;5006573;28;20088;-64
2022/05/15 08:47:17;;;;;;;8.40;1.70;;;;;;;19.58;45.44;97601.84;4989570;28;20030;-63
2022/05/15 08:50:17;;;;;;;3.90;1.52;;;;;;;19.57;44.91;97601.00;4990633;28;20492;-64
2022/05/15 08:53:04;;;;;;;4.70;1.73;;;;;;;19.67;45.09;97601.91;4998638;28;20125;-64
2022/05/15 08:55:42;;;;;;;4.15;1.50;;;;;;;19.78;44.77;97600.59;5003559;28;20050;-64
2022/05/15 08:58:13;;;;;;;3.22;1.80;;;;;;;19.91;44.23;97601.72;5005801;28;20064;-64
2022/05/15 09:00:44;;;;;;;4.60;1.67;;;;;;;19.96;44.31;97598.84;5004027;28;20041;-64
2022/05/15 09:03:16;;;;;;;3.45;1.45;;;;;;;20.00;44.02;97604.56;4989694;28;20035;-64
2022/05/15 09:05:52;;;;;;;3.38;1.42;;;;;;;19.97;43.65;97602.41;5004245;28;20630;-64
2022/05/15 09:08:46;;;;;;;4.10;1.75;;;;;;;20.14;43.96;97594.34;5002234;28;20116;-64
2022/05/15 09:11:21;;;;;;;5.45;1.52;;;;;;;20.25;42.81;97608.69;5000516;28;20037;-64
2022/05/15 09:13:58;;;;;;;4.70;1.73;;;;;;;20.36;43.83;97603.75;5002743;28;20045;-64
2022/05/15 09:16:26;;;;;;;3.05;1.23;;;;;;;20.52;43.84;97601.44;5005978;28;20673;-64
2022/05/15 09:19:06;;;;;;;3.35;1.48;;;;;;;20.52;43.31;97604.19;5011704;28;20080;-64
2022/05/15 09:21:33;;;;;;;8.18;1.60;;;;;;;20.49;41.40;97604.00;5006524;28;20042;-64
2022/05/15 09:24:08;;;;;;;4.25;1.40;;;;;;;20.53;42.50;97594.03;5008359;28;20517;-64
2022/05/15 09:26:46;;;;;;;5.00;1.52;;;;;;;20.69;42.33;97599.94;4991393;28;20046;-64
2022/05/15 09:29:22;;;;;;;6.15;2.22;;;;;;;20.84;41.22;97608.94;5005466;28;20156;-64
2022/05/15 09:31:49;;;;;;;4.65;1.67;;;;;;;20.97;42.14;97599.00;5001975;28;20052;-64
2022/05/15 09:34:34;;;;;;;3.10;1.30;;;;;;;21.01;41.38;97589.78;5013608;28;20049;-64
2022/05/15 09:39:52;;;;;;;5.90;1.30;;;;;;;21.37;41.92;97595.47;5002401;28;20672;-64
2022/05/15 09:45:13;;;;;;;5.82;1.73;;;;;;;21.17;40.64;97589.41;5002149;28;20057;-64
2022/05/15 09:47:43;;;;;;;4.43;1.30;;;;;;;21.30;41.70;97591.22;4988214;28;20046;-64
2022/05/15 09:50:53;;;;;;;4.38;1.58;;;;;;;21.39;41.39;97590.47;5006106;28;20360;-64
2022/05/15 09:53:23;;;;;;;5.97;1.65;;;;;;;21.39;40.98;97587.69;4987045;28;20054;-64
2022/05/15 09:55:57;;;;;;;4.53;1.60;;;;;;;21.38;40.97;97577.81;5008378;28;20046;-64
2022/05/15 09:58:24;;;;;;;7.03;1.77;;;;;;;21.42;40.43;97582.34;5003243;28;20591;-64
2022/05/15 10:01:23;;;;;;;5.38;1.85;;;;;;;21.39;41.01;97583.03;4997239;28;20050;-64
2022/05/15 10:03:57;;;;;;;7.95;1.70;;;;;;;21.52;41.18;97572.22;5007768;28;20034;-64
2022/05/15 10:06:29;;;;;;;3.53;1.30;;;;;;;21.60;41.39;97574.19;5003471;28;20044;-64
2022/05/15 10:09:15;;;;;;;5.22;1.40;;;;;;;21.67;40.74;97581.97;4998146;28;20046;-64
2022/05/15 10:11:45;;;;;;;5.25;2.17;;;;;;;21.73;41.64;97572.44;5004765;28;20092;-64
2022/05/15 10:14:34;;;;;;;4.18;1.90;;;;;;;21.73;40.71;97568.84;5006519;28;20052;-64
2022/05/15 10:17:01;;;;;;;4.00;1.67;;;;;;;21.73;39.59;97563.34;4987546;28;20049;-64
2022/05/15 10:19:47;;;;;;;3.25;2.03;;;;;;;21.86;40.26;97569.88;5016630;28;20049;-64
2022/05/15 10:22:27;;;;;;;3.58;1.55;;;;;;;21.83;40.52;97555.59;4996364;28;20038;-66
2022/05/15 10:25:41;;;;;;;3.85;1.73;;;;;;;21.87;40.36;97564.03;5000231;28;20057;-64
2022/05/15 10:28:23;;;;;;;6.00;1.70;;;;;;;22.17;40.39;97561.47;4981612;28;20520;-64
2022/05/15 10:31:25;;;;;;;3.30;1.77;;;;;;;22.21;39.13;97554.16;5001677;28;20045;-65
2022/05/15 10:33:58;;;;;;;4.93;1.85;;;;;;;22.30;38.66;97556.13;5002815;28;20097;-64
2022/05/15 10:36:49;;;;;;;3.53;1.45;;;;;;;22.26;38.63;97555.13;4998665;28;20050;-64
2022/05/15 10:39:16;;;;;;;3.80;1.70;;;;;;;22.33;39.01;97547.16;5004946;28;20483;-64
2022/05/15 10:42:28;;;;;;;5.05;1.45;;;;;;;22.28;38.78;97544.59;5011581;28;20292;-66
2022/05/15 10:45:04;;;;;;;3.47;1.50;;;;;;;22.41;39.13;97548.31;4969177;28;20111;-64
2022/05/15 10:47:37;;;;;;;3.15;1.50;;;;;;;22.49;39.04;97536.47;5012748;28;20038;-64
2022/05/15 10:50:18;;;;;;;7.40;1.80;;;;;;;22.56;38.63;97541.50;5012091;28;20049;-65
2022/05/15 10:53:02;;;;;;;3.13;1.65;;;;;;;22.55;38.23;97537.13;5012625;28;20045;-65
2022/05/15 10:59:16;;;;;;;2.75;1.20;;;;;;;22.73;38.25;97518.56;4995080;28;20590;-65
2022/05/15 11:02:30;;;;;;;4.60;1.60;;;;;;;22.74;38.53;97517.44;4997080;28;20053;-65
2022/05/15 11:05:18;;;;;;;3.28;1.52;;;;;;;22.94;37.73;97509.56;4991089;28;20054;-65
2022/05/15 11:07:57;;;;;;;3.88;1.63;;;;;;;23.11;37.72;97515.03;5006302;28;20103;-65
2022/05/15 11:10:33;;;;;;;4.72;1.67;;;;;;;23.02;36.93;97513.44;5005293;28;20124;-64
2022/05/15 11:13:11;;;;;;;3.30;1.80;;;;;;;23.21;37.03;97510.25;4992033;28;20046;-61
2022/05/15 11:15:46;;;;;;;3.63;1.50;;;;;;;23.02;36.78;97508.72;4992296;28;20046;-63
2022/05/15 11:18:32;;;;;;;3.67;1.20;;;;;;;23.15;36.89;97506.91;4992553;28;20046;-64
2022/05/15 11:21:09;;;;;;;4.68;1.30;;;;;;;23.29;36.33;97500.34;5005883;28;20045;-61
2022/05/15 11:23:40;;;;;;;3.75;1.40;;;;;;;23.19;35.88;97505.09;5019959;28;20049;-65
2022/05/15 11:26:20;;;;;;;2.78;1.30;;;;;;;23.28;35.83;97495.97;5010643;28;20069;-64
2022/05/15 11:28:50;;;;;;;3.53;1.40;;;;;;;23.39;35.68;97497.22;5000807;28;20048;-63
2022/05/15 11:31:32;;;;;;;4.57;1.40;;;;;;;23.47;35.97;97496.34;5004940;28;20042;-64
2022/05/15 11:34:04;;;;;;;4.03;1.42;;;;;;;23.64;34.95;97494.63;5001359;28;20092;-65
2022/05/15 11:36:43;;;;;;;4.53;1.48;;;;;;;23.86;35.60;97496.25;5000156;28;20038;-64
2022/05/15 11:39:13;;;;;;;4.18;1.73;;;;;;;23.74;35.31;97496.19;4990710;28;20501;-66
2022/05/15 11:41:42;;;;;;;5.03;1.90;;;;;;;23.87;35.60;97486.00;5013695;28;20045;-66
2022/05/15 11:44:12;;;;;;;3.65;1.50;;;;;;;24.10;35.82;97485.66;5014120;28;20073;-65
2022/05/15 11:46:45;;;;;;;3.67;1.40;;;;;;;24.27;35.44;97480.00;5011231;28;20092;-63
2022/05/15 11:49:33;;;;;;;4.80;1.55;;;;;;;24.27;34.83;97482.75;5004370;28;20046;-64
2022/05/15 11:52:08;;;;;;;4.63;2.00;;;;;;;24.16;35.48;97479.59;5009127;28;20045;-68
2022/05/15 11:54:42;;;;;;;2.47;1.20;;;;;;;24.11;35.65;97476.22;5006004;28;20127;-68
2022/05/15 11:57:11;;;;;;;5.75;1.52;;;;;;;24.22;35.79;97479.38;5000981;28;20093;-67
2022/05/15 11:59:57;;;;;;;2.60;1.45;;;;;;;24.44;35.73;97469.91;4998682;28;20038;-63
2022/05/15 12:02:29;;;;;;;2.55;1.40;;;;;;;24.61;34.94;97459.78;5016553;28;20058;-67
2022/05/15 12:05:01;;;;;;;3.20;1.40;;;;;;;24.88;35.32;97469.41;5011693;28;20045;-66
2022/05/15 12:07:32;;;;;;;4.47;1.55;;;;;;;24.92;34.25;97464.00;5015303;28;20041;-63
2022/05/15 12:09:59;;;;;;;3.33;1.40;;;;;;;24.97;34.19;97462.94;5004665;28;20042;-65
2022/05/15 12:12:31;;;;;;;7.05;1.40;;;;;;;25.07;34.33;97448.66;5006060;28;20034;-66
2022/05/15 12:15:06;;;;;;;4.25;1.98;;;;;;;25.02;34.04;97455.22;5006184;28;20046;-64
2022/05/15 12:17:37;;;;;;;2.78;1.30;;;;;;;25.27;34.23;97449.69;5000917;28;20058;-64